createdAt,value
2022-09-27T00:17:24.506Z,0.01
2022-09-27T00:19:42.103Z,0
2022-09-27T04:40:23.116Z,0.01
2022-09-27T04:47:57.836Z,0.02
2022-09-27T04:50:43.150Z,0.03
2022-09-27T04:53:14.160Z,0.05
2022-09-27T04:55:30.852Z,0.07
2022-09-27T04:57:33.489Z,0.09
2022-09-27T05:00:24.955Z,0.18
2022-09-27T05:03:01.700Z,0.38
2022-09-27T05:05:24.725Z,0.71
2022-09-27T05:07:33.593Z,0.99
2022-09-27T05:10:31.248Z,1.16
2022-09-27T05:13:14.829Z,1.79
2022-09-27T05:15:44.089Z,3.1
2022-09-27T05:17:58.960Z,3.71
2022-09-27T05:19:59.899Z,3.89
2022-09-27T05:22:49.482Z,4.39
2022-09-27T05:25:24.912Z,6.56
2022-09-27T05:27:46.038Z,8.93
2022-09-27T05:29:53.166Z,12.3
2022-09-27T05:32:49.036Z,14.12
2022-09-27T05:35:30.622Z,16.47
2022-09-27T05:37:58.353Z,20.77
2022-09-27T05:40:22.868Z,22
2022-09-27T05:42:10.489Z,21.16
2022-09-27T05:44:58.655Z,22.6
2022-09-27T05:47:32.153Z,26.56
2022-09-27T05:49:51.589Z,31.48
2022-09-27T05:51:56.880Z,32.63
2022-09-27T05:54:50.639Z,34.35
2022-09-27T05:57:30.502Z,24.8
2022-09-27T05:59:56.124Z,29.57
2022-09-27T06:02:07.712Z,30.75
2022-09-27T06:05:07.818Z,32.81
2022-09-27T06:07:53.721Z,30.62
2022-09-27T06:10:25.581Z,37.06
2022-09-27T06:12:43.053Z,45.22
2022-09-27T06:14:46.369Z,48.08
2022-09-27T06:17:38.866Z,59.34
2022-09-27T06:20:16.718Z,57.46
2022-09-27T06:22:40.581Z,52.72
2022-09-27T06:24:50.376Z,56.16
2022-09-27T06:27:48.895Z,63.14
2022-09-27T06:30:33.361Z,71.84
2022-09-27T06:33:02.972Z,83.16
2022-09-27T06:35:18.797Z,85.16
2022-09-27T06:37:20.371Z,77.7
2022-09-27T06:40:10.703Z,77.86
2022-09-27T06:42:47.061Z,91.2
2022-09-27T06:45:09.043Z,77.18
2022-09-27T06:47:16.338Z,83.4
2022-09-27T06:50:13.121Z,89.28
2022-09-27T06:52:55.587Z,84.76
2022-09-27T06:55:23.716Z,82.52
2022-09-27T06:57:37.577Z,81.26
2022-09-27T06:59:37.484Z,100.8
2022-09-27T07:02:26.076Z,133.04
2022-09-27T07:05:00.404Z,116.72
2022-09-27T07:07:20.701Z,119.08
2022-09-27T07:09:26.793Z,130.12
2022-09-27T07:12:21.637Z,152.36
2022-09-27T07:15:02.384Z,156.2
2022-09-27T07:17:28.854Z,140.84
2022-09-27T07:19:41.229Z,124.32
2022-09-27T07:21:39.280Z,146
2022-09-27T07:24:26.145Z,138.6
2022-09-27T07:26:58.756Z,137.56
2022-09-27T07:29:17.119Z,154.08
2022-09-27T07:31:21.391Z,181.4
2022-09-27T07:34:14.371Z,212.1
2022-09-27T07:36:53.165Z,193.4
2022-09-27T07:39:17.614Z,170.5
2022-09-27T07:41:27.931Z,196.2
2022-09-27T07:44:27.054Z,200.6
2022-09-27T07:47:12.168Z,199.2
2022-09-27T07:49:43.061Z,219.3
2022-09-27T07:51:59.669Z,227.9
2022-09-27T07:54:05.322Z,264.5
2022-09-27T07:56:53.521Z,326.4
2022-09-27T07:59:30.565Z,342.5
2022-09-27T08:01:53.379Z,339.8
2022-09-27T08:04:02.056Z,325.8
2022-09-27T08:06:59.566Z,355.2
2022-09-27T08:09:42.722Z,520.9
2022-09-27T08:12:11.865Z,408.9
2022-09-27T08:14:26.668Z,418.2
2022-09-27T08:16:27.234Z,454.7
2022-09-27T08:19:16.789Z,409.7
2022-09-27T08:21:54.466Z,366.8
2022-09-27T08:24:12.983Z,381.4
2022-09-27T08:26:19.965Z,337.7
2022-09-27T08:29:15.818Z,410.4
2022-09-27T08:31:56.887Z,389.7
2022-09-27T08:34:24.091Z,449.9
2022-09-27T08:36:37.295Z,428.6
2022-09-27T08:38:36.193Z,428.9
2022-09-27T08:41:23.814Z,396
2022-09-27T08:43:57.419Z,452.3
2022-09-27T08:46:16.667Z,435.3
2022-09-27T08:48:21.731Z,374.2
2022-09-27T08:51:16.206Z,336.4
2022-09-27T08:53:55.425Z,353.9
2022-09-27T08:56:20.828Z,375.8
2022-09-27T08:58:32.215Z,358.2
2022-09-27T09:01:32.392Z,411.2
2022-09-27T09:04:18.229Z,445.9
2022-09-27T09:06:49.794Z,449.1
2022-09-27T09:09:07.373Z,408.1
2022-09-27T09:11:10.682Z,465.6
2022-09-27T09:14:02.756Z,485.6
2022-09-27T09:16:40.997Z,532.8
2022-09-27T09:19:04.391Z,565.2
2022-09-27T09:21:13.705Z,571.6
2022-09-27T09:24:11.647Z,492.1
2022-09-27T09:26:57.513Z,473.2
2022-09-27T09:29:25.516Z,461.6
2022-09-27T09:31:41.165Z,499.8
2022-09-27T09:33:42.602Z,465.2
2022-09-27T09:36:32.915Z,498.7
2022-09-27T09:39:08.840Z,530
2022-09-27T09:41:30.760Z,589.2
2022-09-27T09:43:38.450Z,579.5
2022-09-27T09:46:34.782Z,451.3
2022-09-27T09:49:16.958Z,325.2
2022-09-27T09:51:44.939Z,281.2
2022-09-27T09:53:58.807Z,265.7
2022-09-27T09:55:59.159Z,248.4
2022-09-27T09:58:46.934Z,277.4
2022-09-27T10:01:01.953Z,414.7
2022-09-27T10:03:02.631Z,502.8
2022-09-27T10:05:52.071Z,596.3
2022-09-27T10:08:27.365Z,640.3
2022-09-27T10:10:48.409Z,647.2
2022-09-27T10:12:55.184Z,932.4
2022-09-27T10:15:50.499Z,723.5
2022-09-27T10:18:31.962Z,620.6
2022-09-27T10:20:59.185Z,535.2
2022-09-27T10:23:12.331Z,877.1
2022-09-27T10:25:11.294Z,608.8
2022-09-27T10:27:58.891Z,544
2022-09-27T10:30:31.955Z,520.8
2022-09-27T10:32:51.141Z,546.5
2022-09-27T10:34:56.080Z,577.6
2022-09-27T10:37:49.624Z,572
2022-09-27T10:40:29.243Z,538.2
2022-09-27T10:42:54.532Z,476.8
2022-09-27T10:45:05.623Z,392.6
2022-09-27T10:48:05.610Z,279.5
2022-09-27T10:50:53.785Z,218.4
2022-09-27T10:53:22.818Z,131.04
2022-09-27T10:55:40.077Z,114.64
2022-09-27T10:57:45.226Z,214
2022-09-27T11:00:35.117Z,388.9
2022-09-27T11:03:12.676Z,451.2
2022-09-27T11:05:36.286Z,502.4
2022-09-27T11:07:45.255Z,542.4
2022-09-27T11:10:43.213Z,548.3
2022-09-27T11:13:27.188Z,510.7
2022-09-27T11:15:56.988Z,448.1
2022-09-27T11:18:12.475Z,451
2022-09-27T11:20:14.041Z,458.2
2022-09-27T11:23:04.148Z,488.6
2022-09-27T11:25:40.024Z,371.2
2022-09-27T11:28:01.667Z,367
2022-09-27T11:30:09.293Z,393.2
2022-09-27T11:33:05.918Z,439.8
2022-09-27T11:35:47.514Z,666.2
2022-09-27T11:38:24.990Z,487.2
2022-09-27T11:40:29.305Z,402.8
2022-09-27T11:42:28.922Z,386.4
2022-09-27T11:45:34.585Z,375.3
2022-09-27T11:47:51.304Z,358.4
2022-09-27T11:50:11.227Z,374.7
2022-09-27T11:52:17.099Z,397.6
2022-09-27T11:55:11.633Z,510
2022-09-27T11:57:51.887Z,455.3
2022-09-27T12:00:17.630Z,420.8
2022-09-27T12:02:29.634Z,416.4
2022-09-27T12:04:27.336Z,448.9
2022-09-27T12:07:13.774Z,489.6
2022-09-27T12:09:46.075Z,474.5
2022-09-27T12:12:04.206Z,661.1
2022-09-27T12:14:08.160Z,612.4
2022-09-27T12:17:00.851Z,1056
2022-09-27T12:19:39.334Z,838.4
2022-09-27T12:22:03.589Z,536.4
2022-09-27T12:24:13.855Z,757.7
2022-09-27T12:27:12.668Z,884.4
2022-09-27T12:29:57.182Z,604.9
2022-09-27T12:32:27.500Z,720.9
2022-09-27T12:34:43.875Z,684.4
2022-09-27T12:36:46.030Z,701.1
2022-09-27T12:39:36.716Z,708.8
2022-09-27T12:42:13.425Z,613.2
2022-09-27T12:44:35.966Z,477.2
2022-09-27T12:46:44.424Z,513.1
2022-09-27T12:49:41.554Z,482.2
2022-09-27T12:52:24.151Z,604.8
2022-09-27T12:54:52.918Z,470.8
2022-09-27T12:57:07.409Z,633.2
2022-09-27T12:59:07.998Z,519.8
2022-09-27T13:01:57.119Z,582.8
2022-09-27T13:04:31.887Z,502.5
2022-09-27T13:06:52.675Z,470.8
2022-09-27T13:08:59.623Z,400.3
2022-09-27T13:11:54.559Z,364
2022-09-27T13:14:35.920Z,332.8
2022-09-27T13:17:02.955Z,349.4
2022-09-27T13:19:15.838Z,354.2
2022-09-27T13:21:14.539Z,372.3
2022-09-27T13:24:02.049Z,389.4
2022-09-27T13:26:35.305Z,368.9
2022-09-27T13:28:54.335Z,288.9
2022-09-27T13:30:59.337Z,292
2022-09-27T13:33:52.789Z,442
2022-09-27T13:36:32.030Z,475.2
2022-09-27T13:38:57.253Z,466
2022-09-27T13:41:08.283Z,376.3
2022-09-27T13:44:07.593Z,240.7
2022-09-27T13:46:53.763Z,200.2
2022-09-27T13:49:24.813Z,175.6
2022-09-27T13:51:42.016Z,167.6
2022-09-27T13:53:45.199Z,224.4
2022-09-27T13:56:37.125Z,296.8
2022-09-27T13:59:14.512Z,340.3
2022-09-27T14:01:37.720Z,336.6
2022-09-27T14:03:46.941Z,315.2
2022-09-27T14:06:44.748Z,290.2
2022-09-27T14:09:28.386Z,283.2
2022-09-27T14:11:57.958Z,282.4
2022-09-27T14:14:13.320Z,299.9
2022-09-27T14:16:14.582Z,341.6
2022-09-27T14:19:04.675Z,327.1
2022-09-27T14:21:40.197Z,357.4
2022-09-27T14:24:01.700Z,373.6
2022-09-27T14:26:09.307Z,401.4
2022-09-27T14:29:05.357Z,358.2
2022-09-27T14:31:47.318Z,386.2
2022-09-27T14:34:14.902Z,401.9
2022-09-27T14:36:28.206Z,416.3
2022-09-27T14:38:37.448Z,395.6
2022-09-27T14:41:15.619Z,384
2022-09-27T14:43:49.625Z,422
2022-09-27T14:46:09.463Z,448.8
2022-09-27T14:48:14.961Z,500.4
2022-09-27T14:51:13.357Z,313.9
2022-09-27T14:53:49.507Z,266.9
2022-09-27T14:56:15.437Z,250.4
2022-09-27T14:58:45.868Z,225.8
2022-09-27T15:00:25.188Z,214.8
2022-09-27T15:03:11.647Z,201.2
2022-09-27T15:05:43.644Z,204
2022-09-27T15:08:01.803Z,205.3
2022-09-27T15:10:05.727Z,211.5
2022-09-27T15:12:58.243Z,202
2022-09-27T15:15:36.808Z,175.4
2022-09-27T15:18:01.092Z,141.08
2022-09-27T15:20:11.145Z,107.8
2022-09-27T15:23:09.942Z,138.24
2022-09-27T15:25:54.499Z,144.4
2022-09-27T15:28:24.486Z,136.04
2022-09-27T15:30:40.623Z,129
2022-09-27T15:32:42.786Z,119.84
2022-09-27T15:35:33.571Z,99.08
2022-09-27T15:38:09.972Z,64.58
2022-09-27T15:40:32.551Z,47.88
2022-09-27T15:42:40.800Z,47.56
2022-09-27T15:45:37.688Z,54.7
2022-09-27T15:48:20.552Z,80.56
2022-09-27T15:50:49.239Z,130.28
2022-09-27T15:53:03.728Z,172.4
2022-09-27T15:55:04.192Z,190.7
2022-09-27T15:57:53.262Z,186.5
2022-09-27T16:00:28.149Z,169.6
2022-09-27T16:02:48.719Z,152.6
2022-09-27T16:04:55.415Z,133.24
2022-09-27T16:07:50.621Z,101.2
2022-09-27T16:10:31.683Z,64.36
2022-09-27T16:12:58.729Z,25.45
2022-09-27T16:15:11.624Z,7.4
2022-09-27T16:17:10.200Z,7.28
2022-09-27T16:19:57.296Z,9.5
2022-09-27T16:22:30.541Z,14.63
2022-09-27T16:24:49.553Z,22.97
2022-09-27T16:26:54.605Z,24.54
2022-09-27T16:29:48.350Z,26.56
2022-09-27T16:32:27.744Z,38.62
2022-09-27T16:34:53.145Z,44.92
2022-09-27T16:37:05.167Z,36.48
2022-09-27T16:40:04.264Z,18.14
2022-09-27T16:42:49.991Z,14.17
2022-09-27T16:45:21.782Z,18.08
2022-09-27T16:49:42.580Z,16.13
2022-09-27T16:52:34.755Z,22.22
2022-09-27T16:55:12.744Z,22.78
2022-09-27T16:57:36.456Z,20.97
2022-09-27T16:59:46.101Z,17.18
2022-09-27T17:02:44.453Z,13.33
2022-09-27T17:05:28.659Z,10.62
2022-09-27T17:07:58.523Z,7.07
2022-09-27T17:10:14.388Z,4.13
2022-09-27T17:12:15.534Z,3.28
2022-09-27T17:15:05.894Z,1.93
2022-09-27T17:17:42.158Z,1.12
2022-09-27T17:20:04.219Z,0.64
2022-09-27T17:22:11.849Z,0.4
2022-09-27T17:25:08.570Z,0.32
2022-09-27T17:27:50.993Z,0.31
2022-09-27T17:30:19.155Z,0.27
2022-09-27T17:32:32.974Z,0.21
2022-09-27T17:34:33.161Z,0.18
2022-09-27T17:37:21.466Z,0.12
2022-09-27T17:39:55.793Z,0.07
2022-09-27T17:42:16.124Z,0.05
2022-09-27T17:44:22.163Z,0.04
2022-09-27T17:47:16.843Z,0.02
2022-09-27T17:52:23.901Z,0.01
2022-09-27T18:09:08.948Z,0
2022-09-27T18:34:26.203Z,0.01
2022-09-27T18:44:38.816Z,0
2022-09-27T19:49:02.167Z,0.01
2022-09-27T19:51:40.388Z,0
2022-09-27T19:56:13.853Z,0.01
2022-09-27T19:59:12.424Z,0
2022-09-27T20:48:01.035Z,0.01
2022-09-27T20:50:58.609Z,0
